Time;durP1;ratioP1;P1;durP2;ratioP2;P2;SDS_P1;SDS_P2;PMS_P1;PMS_P2;Temp;Humidity;BMP_temperature;BMP_pressure;BME280_temperature;BME280_humidity;BME280_pressure;Samples;Min_cycle;Max_cycle;Signal;HPM_P1;HPM_P2
2022/03/26 00:01:04;;;;;;;29.70;13.80;;;8.80;99.90;;;;;;5042439;28;20535;-69
2022/03/26 00:03:32;;;;;;;30.47;15.60;;;8.80;99.90;;;;;;5044964;28;20519;-71
2022/03/26 00:06:00;;;;;;;39.70;17.07;;;8.80;99.90;;;;;;5046384;28;21114;-70
2022/03/26 00:08:26;;;;;;;27.77;12.60;;;8.60;99.90;;;;;;5046576;28;20449;-71
2022/03/26 00:10:53;;;;;;;34.87;14.50;;;8.60;99.90;;;;;;5047311;28;20915;-69
2022/03/26 00:13:20;;;;;;;26.93;12.00;;;8.60;99.90;;;;;;5046356;28;20520;-70
2022/03/26 00:15:47;;;;;;;35.23;13.10;;;8.50;99.90;;;;;;5043105;28;20563;-70
2022/03/26 00:18:15;;;;;;;27.77;14.10;;;8.50;99.90;;;;;;5054417;28;20462;-70
2022/03/26 00:20:43;;;;;;;44.67;13.00;;;8.50;99.90;;;;;;5051045;28;20509;-69
2022/03/26 00:23:10;;;;;;;26.17;13.03;;;8.50;99.90;;;;;;5045398;28;20519;-69
2022/03/26 00:25:37;;;;;;;35.47;16.10;;;8.50;99.90;;;;;;5056626;28;20498;-70
2022/03/26 00:28:04;;;;;;;34.27;15.50;;;8.50;99.90;;;;;;5055137;28;20574;-69
2022/03/26 00:30:32;;;;;;;35.07;13.37;;;8.60;99.90;;;;;;5047673;28;20785;-70
2022/03/26 00:32:58;;;;;;;19.70;11.97;;;8.50;99.90;;;;;;5052223;28;20433;-71
2022/03/26 00:35:25;;;;;;;31.07;13.57;;;8.60;99.90;;;;;;5056847;28;20445;-72
2022/03/26 00:37:53;;;;;;;40.10;13.43;;;8.50;99.90;;;;;;5052125;28;20421;-70
2022/03/26 00:40:20;;;;;;;24.57;12.97;;;8.50;99.90;;;;;;5050368;28;20790;-70
2022/03/26 00:42:47;;;;;;;34.27;15.23;;;8.60;99.90;;;;;;5059483;28;20421;-71
2022/03/26 00:45:14;;;;;;;27.57;12.13;;;8.50;99.90;;;;;;5062909;28;20459;-70
2022/03/26 00:47:41;;;;;;;28.87;13.93;;;8.40;99.90;;;;;;5053484;28;20435;-70
2022/03/26 00:50:09;;;;;;;25.13;11.57;;;8.30;99.90;;;;;;5059167;28;20460;-70
2022/03/26 00:52:36;;;;;;;27.60;14.57;;;8.20;99.90;;;;;;5047757;28;20483;-69
2022/03/26 00:55:05;;;;;;;30.37;13.93;;;8.20;99.90;;;;;;5054320;28;20508;-70
2022/03/26 00:57:32;;;;;;;35.00;15.10;;;8.10;99.90;;;;;;5050029;28;20536;-70
2022/03/26 00:59:59;;;;;;;32.00;15.70;;;8.10;99.90;;;;;;5050266;28;20462;-69
2022/03/26 01:02:25;;;;;;;33.13;16.63;;;8.00;99.90;;;;;;5039855;28;20548;-70
2022/03/26 01:04:52;;;;;;;24.70;13.20;;;8.10;99.90;;;;;;5045461;28;20470;-69
2022/03/26 01:07:19;;;;;;;24.33;13.47;;;8.10;99.90;;;;;;5043048;28;20463;-69
2022/03/26 01:09:46;;;;;;;29.83;13.33;;;8.20;99.90;;;;;;5032073;28;20465;-70
2022/03/26 01:12:14;;;;;;;32.00;13.63;;;8.30;99.90;;;;;;5051070;28;20513;-70
2022/03/26 01:14:41;;;;;;;30.13;14.17;;;8.40;99.90;;;;;;5050352;28;20466;-69
2022/03/26 01:17:07;;;;;;;37.33;17.00;;;8.40;99.90;;;;;;5049961;28;20572;-71
2022/03/26 01:19:34;;;;;;;33.37;15.40;;;8.40;99.90;;;;;;5042681;28;20521;-70
2022/03/26 01:22:01;;;;;;;36.33;16.27;;;8.50;99.90;;;;;;5044268;28;20485;-70
2022/03/26 01:24:27;;;;;;;30.43;13.50;;;8.40;99.90;;;;;;5039850;28;20466;-70
2022/03/26 01:26:54;;;;;;;24.60;12.87;;;8.40;99.90;;;;;;5041366;28;20807;-70
2022/03/26 01:29:22;;;;;;;37.20;13.47;;;8.40;99.90;;;;;;5036893;28;20498;-70
2022/03/26 01:31:49;;;;;;;35.90;14.73;;;8.50;99.90;;;;;;5041608;28;20461;-70
2022/03/26 01:34:17;;;;;;;44.27;15.90;;;8.20;99.90;;;;;;5041393;28;20498;-71
2022/03/26 01:36:44;;;;;;;33.73;15.97;;;8.00;99.90;;;;;;5052750;28;20486;-68
2022/03/26 01:39:11;;;;;;;23.37;11.40;;;7.90;99.90;;;;;;5046680;28;20452;-70
2022/03/26 01:41:38;;;;;;;36.70;13.90;;;8.00;99.90;;;;;;5041442;28;20507;-70
2022/03/26 01:44:05;;;;;;;21.27;13.00;;;8.10;99.90;;;;;;5044804;28;22760;-70
2022/03/26 01:46:47;;;;;;;26.80;15.60;;;8.00;99.90;;;;;;5047349;28;20520;-70
2022/03/26 01:49:13;;;;;;;26.57;14.03;;;8.10;99.90;;;;;;5042754;28;21349;-70
2022/03/26 01:51:40;;;;;;;28.07;13.47;;;8.10;99.90;;;;;;5043663;28;20516;-70
2022/03/26 01:54:07;;;;;;;21.77;13.10;;;8.00;99.90;;;;;;5041631;28;20459;-69
2022/03/26 01:56:35;;;;;;;24.93;14.93;;;8.00;99.90;;;;;;5037359;28;20445;-70
2022/03/26 01:59:03;;;;;;;27.50;12.70;;;7.90;99.90;;;;;;5039464;28;20886;-71
2022/03/26 02:01:31;;;;;;;29.73;12.07;;;7.70;99.90;;;;;;5046863;28;20445;-69
2022/03/26 02:04:00;;;;;;;21.40;11.60;;;7.60;99.90;;;;;;5040271;28;20601;-70
2022/03/26 02:06:30;;;;;;;31.90;16.17;;;7.70;99.90;;;;;;5050506;28;20499;-68
2022/03/26 02:08:57;;;;;;;23.67;13.27;;;7.70;99.90;;;;;;5046922;28;20463;-70
2022/03/26 02:11:24;;;;;;;28.80;14.50;;;7.60;99.90;;;;;;5043133;28;20463;-69
2022/03/26 02:13:52;;;;;;;28.47;13.70;;;7.60;99.90;;;;;;5043189;28;20956;-70
2022/03/26 02:16:20;;;;;;;24.50;12.03;;;7.60;99.90;;;;;;5046315;28;20475;-70
2022/03/26 02:18:47;;;;;;;27.47;13.73;;;7.50;99.90;;;;;;5046456;28;20504;-70
2022/03/26 02:21:15;;;;;;;32.10;13.07;;;7.40;99.90;;;;;;5049249;28;20483;-70
2022/03/26 02:23:43;;;;;;;23.23;10.20;;;7.40;99.90;;;;;;5042851;28;21311;-69
2022/03/26 02:26:10;;;;;;;24.27;11.10;;;7.40;99.90;;;;;;5045105;28;20622;-71
2022/03/26 02:28:37;;;;;;;19.73;11.33;;;7.10;99.90;;;;;;5042017;28;20479;-71
2022/03/26 02:31:04;;;;;;;30.80;14.70;;;7.10;99.90;;;;;;5045214;28;20643;-70
2022/03/26 02:33:31;;;;;;;20.87;10.47;;;7.00;99.90;;;;;;5051322;28;20457;-70
2022/03/26 02:35:58;;;;;;;28.00;14.33;;;6.90;99.90;;;;;;5046706;28;20467;-70
2022/03/26 02:38:26;;;;;;;30.67;13.33;;;7.00;99.90;;;;;;5048474;28;20868;-69
2022/03/26 02:40:53;;;;;;;36.77;11.77;;;7.10;99.90;;;;;;5041896;28;20457;-70
2022/03/26 02:43:20;;;;;;;26.80;13.10;;;7.10;99.90;;;;;;5047088;28;20446;-70
2022/03/26 02:45:47;;;;;;;22.13;12.83;;;7.10;99.90;;;;;;5048724;28;20439;-70
2022/03/26 02:48:14;;;;;;;26.80;14.43;;;7.10;99.90;;;;;;5038259;28;20803;-70
2022/03/26 02:50:41;;;;;;;26.83;13.23;;;7.10;99.90;;;;;;5043571;28;20498;-69
2022/03/26 02:53:08;;;;;;;28.70;14.87;;;7.20;99.90;;;;;;5040729;28;21015;-70
2022/03/26 02:55:37;;;;;;;28.37;14.70;;;7.10;99.90;;;;;;5034493;28;21063;-69
2022/03/26 02:58:05;;;;;;;26.33;11.00;;;7.10;99.90;;;;;;5027673;28;21068;-70
2022/03/26 03:00:33;;;;;;;17.00;10.07;;;7.10;99.90;;;;;;5045949;28;20445;-70
2022/03/26 03:03:00;;;;;;;28.40;12.87;;;6.90;99.90;;;;;;5043863;28;20942;-71
2022/03/26 03:05:27;;;;;;;27.10;14.13;;;6.80;99.90;;;;;;5045759;28;20554;-70
2022/03/26 03:07:54;;;;;;;26.10;13.60;;;6.80;99.90;;;;;;5041089;28;20451;-70
2022/03/26 03:10:20;;;;;;;34.77;14.13;;;6.90;99.90;;;;;;5041579;28;21040;-70
2022/03/26 03:12:49;;;;;;;19.80;11.70;;;6.90;99.90;;;;;;5039954;28;20931;-70
2022/03/26 03:15:17;;;;;;;24.10;11.73;;;6.90;99.90;;;;;;5042762;28;20429;-70
2022/03/26 03:17:46;;;;;;;28.33;14.07;;;6.90;99.90;;;;;;5044289;28;20457;-70
2022/03/26 03:20:13;;;;;;;25.77;12.50;;;6.90;99.90;;;;;;5041083;28;20448;-70
2022/03/26 03:22:40;;;;;;;28.27;10.57;;;6.90;99.90;;;;;;5048202;28;20925;-70
2022/03/26 03:25:08;;;;;;;24.13;13.50;;;6.90;99.90;;;;;;5046189;28;20478;-70
2022/03/26 03:27:35;;;;;;;29.93;12.73;;;6.90;99.90;;;;;;5041403;28;20487;-70
2022/03/26 03:30:04;;;;;;;24.23;12.73;;;6.90;99.90;;;;;;5043058;28;20471;-70
2022/03/26 03:32:30;;;;;;;29.70;14.90;;;6.90;99.90;;;;;;5051182;28;20437;-70
2022/03/26 03:34:57;;;;;;;18.80;11.53;;;6.70;99.90;;;;;;5052148;28;20602;-71
2022/03/26 03:37:24;;;;;;;22.83;12.00;;;6.50;99.90;;;;;;5040556;28;20613;-70
2022/03/26 03:39:51;;;;;;;34.60;12.53;;;6.50;99.90;;;;;;5037407;28;20467;-70
2022/03/26 03:42:18;;;;;;;35.10;15.63;;;6.50;99.90;;;;;;5035280;28;20512;-70
2022/03/26 03:44:45;;;;;;;30.87;13.93;;;6.60;99.90;;;;;;5043974;28;20555;-70
2022/03/26 03:47:13;;;;;;;31.97;13.70;;;6.60;99.90;;;;;;5039502;28;20473;-71
2022/03/26 03:49:39;;;;;;;20.87;13.30;;;6.50;99.90;;;;;;5041902;28;20517;-70
2022/03/26 03:52:06;;;;;;;40.30;14.90;;;6.50;99.90;;;;;;5042362;28;20464;-70
2022/03/26 03:54:33;;;;;;;22.37;10.80;;;6.50;99.90;;;;;;5041978;28;20821;-70
2022/03/26 03:57:00;;;;;;;27.47;12.43;;;6.60;99.90;;;;;;5043041;28;20969;-70
2022/03/26 03:59:26;;;;;;;37.43;13.27;;;6.60;99.90;;;;;;5047015;28;20964;-69
2022/03/26 04:01:53;;;;;;;29.20;14.10;;;6.50;99.90;;;;;;5049067;28;20549;-70
2022/03/26 04:04:21;;;;;;;28.23;14.67;;;6.40;99.90;;;;;;5053458;28;20448;-70
2022/03/26 04:06:48;;;;;;;27.07;10.57;;;6.30;99.90;;;;;;5069177;22;20522;-69
2022/03/26 04:09:15;;;;;;;28.70;12.03;;;6.20;99.90;;;;;;5056570;28;20463;-69
2022/03/26 04:11:41;;;;;;;29.70;13.27;;;6.10;99.90;;;;;;5056109;28;20433;-69
2022/03/26 04:14:08;;;;;;;25.00;12.90;;;6.10;99.90;;;;;;5046103;28;20455;-70
2022/03/26 04:16:35;;;;;;;22.37;11.43;;;6.10;99.90;;;;;;5057110;28;20478;-70
2022/03/26 04:19:01;;;;;;;30.43;11.87;;;6.20;99.90;;;;;;5049915;28;20461;-70
2022/03/26 04:21:30;;;;;;;37.97;14.93;;;6.10;99.90;;;;;;5053472;28;20544;-71
2022/03/26 04:23:57;;;;;;;24.60;12.27;;;6.00;99.90;;;;;;5052360;28;20421;-70
2022/03/26 04:26:23;;;;;;;25.23;10.63;;;6.10;99.90;;;;;;5052237;28;20813;-69
2022/03/26 04:28:50;;;;;;;23.97;13.87;;;6.10;99.90;;;;;;5052986;28;20514;-70
2022/03/26 04:31:17;;;;;;;27.87;11.80;;;6.20;99.90;;;;;;5049455;28;20462;-68
2022/03/26 04:33:43;;;;;;;21.50;12.80;;;6.10;99.90;;;;;;5046273;28;20445;-69
2022/03/26 04:36:10;;;;;;;21.57;12.00;;;6.10;99.90;;;;;;5051881;28;20835;-69
2022/03/26 04:38:38;;;;;;;20.47;10.07;;;6.20;99.90;;;;;;5042825;28;20977;-70
2022/03/26 04:41:05;;;;;;;21.40;10.93;;;6.10;99.90;;;;;;5045525;28;20551;-70
2022/03/26 04:43:31;;;;;;;26.00;10.73;;;6.10;99.90;;;;;;5044659;28;20430;-69
2022/03/26 04:45:58;;;;;;;23.53;12.10;;;6.10;99.90;;;;;;5051309;28;20985;-70
2022/03/26 04:48:25;;;;;;;32.27;13.83;;;6.00;99.90;;;;;;5047562;28;21424;-70
2022/03/26 04:50:52;;;;;;;31.73;10.80;;;6.10;99.90;;;;;;5052832;28;20857;-70
2022/03/26 04:53:18;;;;;;;13.40;8.80;;;6.10;99.90;;;;;;5047452;28;20506;-70
2022/03/26 04:55:46;;;;;;;20.53;10.30;;;6.10;99.90;;;;;;5049998;28;20532;-69
2022/03/26 04:58:13;;;;;;;21.97;11.70;;;6.00;99.90;;;;;;5050570;28;20453;-70
2022/03/26 05:00:40;;;;;;;28.80;12.53;;;6.00;99.90;;;;;;5048949;28;20487;-70
2022/03/26 05:03:08;;;;;;;28.70;13.70;;;5.90;99.90;;;;;;5058875;28;20937;-70
2022/03/26 05:05:34;;;;;;;21.00;10.97;;;5.90;99.90;;;;;;5040109;28;20967;-70
2022/03/26 05:08:01;;;;;;;22.10;11.70;;;5.90;99.90;;;;;;5055775;28;20436;-70
2022/03/26 05:10:29;;;;;;;29.37;12.93;;;5.90;99.90;;;;;;5051562;28;20483;-70
2022/03/26 05:12:59;;;;;;;17.30;9.47;;;5.90;99.90;;;;;;5056930;28;20990;-71
2022/03/26 05:15:27;;;;;;;30.10;13.00;;;5.90;99.90;;;;;;5052063;28;20610;-70
2022/03/26 05:17:55;;;;;;;23.50;10.43;;;5.90;99.90;;;;;;5051127;28;20541;-71
2022/03/26 05:20:23;;;;;;;30.10;11.40;;;5.90;99.90;;;;;;5044696;28;20745;-70
2022/03/26 05:22:51;;;;;;;35.60;11.53;;;6.00;99.90;;;;;;5046363;28;20463;-71
2022/03/26 05:25:19;;;;;;;19.60;9.90;;;6.00;99.90;;;;;;5052362;28;20465;-70
2022/03/26 05:27:47;;;;;;;19.73;10.07;;;5.90;99.90;;;;;;5056437;28;20492;-70
2022/03/26 05:30:16;;;;;;;24.53;11.10;;;5.90;99.90;;;;;;5054910;28;20934;-72
2022/03/26 05:32:43;;;;;;;21.93;11.50;;;5.80;99.90;;;;;;5055166;28;20919;-70
2022/03/26 05:35:13;;;;;;;18.73;11.07;;;5.90;99.90;;;;;;5048274;28;20975;-70
2022/03/26 05:37:40;;;;;;;34.60;13.63;;;5.80;99.90;;;;;;5054170;28;20455;-70
2022/03/26 05:40:08;;;;;;;29.63;14.20;;;5.80;99.90;;;;;;5049561;28;20794;-70
2022/03/26 05:42:35;;;;;;;17.20;9.73;;;5.90;99.90;;;;;;5052512;28;22193;-71
2022/03/26 05:45:02;;;;;;;15.50;11.43;;;6.00;99.90;;;;;;5050460;28;20775;-70
2022/03/26 05:47:31;;;;;;;28.20;11.73;;;6.00;99.90;;;;;;5049625;28;20455;-71
2022/03/26 05:49:58;;;;;;;26.73;12.00;;;6.10;99.90;;;;;;5052656;28;21017;-71
2022/03/26 05:52:25;;;;;;;23.70;11.90;;;6.10;99.90;;;;;;5052526;28;20525;-70
2022/03/26 05:54:51;;;;;;;18.30;10.00;;;6.20;99.90;;;;;;5046660;28;20833;-70
2022/03/26 05:57:18;;;;;;;30.13;13.27;;;6.20;99.90;;;;;;5049533;28;20478;-70
2022/03/26 05:59:46;;;;;;;29.10;11.30;;;6.10;99.90;;;;;;5045206;28;20426;-70
2022/03/26 06:02:13;;;;;;;35.63;11.40;;;6.30;99.90;;;;;;5048124;28;20474;-70
2022/03/26 06:04:41;;;;;;;35.07;13.73;;;6.50;99.90;;;;;;5046096;28;20462;-70
2022/03/26 06:07:08;;;;;;;20.80;10.00;;;6.70;99.90;;;;;;5046237;28;20430;-70
2022/03/26 06:09:36;;;;;;;25.60;10.23;;;7.00;99.90;;;;;;5052498;28;20437;-70
2022/03/26 06:12:03;;;;;;;21.43;10.03;;;7.30;99.90;;;;;;5054255;28;20422;-71
2022/03/26 06:14:30;;;;;;;27.77;12.23;;;7.40;99.90;;;;;;5048947;28;20468;-70
2022/03/26 06:16:56;;;;;;;21.47;10.17;;;7.50;99.90;;;;;;5048592;28;20490;-71
2022/03/26 06:19:24;;;;;;;18.87;10.57;;;7.50;99.90;;;;;;5049823;28;20478;-71
2022/03/26 06:21:53;;;;;;;21.57;12.33;;;7.40;99.90;;;;;;5059084;28;20483;-71
2022/03/26 06:24:20;;;;;;;24.87;12.07;;;7.40;99.90;;;;;;5046289;28;20593;-71
2022/03/26 06:26:48;;;;;;;18.37;10.00;;;7.60;99.90;;;;;;5040433;28;20553;-70
2022/03/26 06:29:15;;;;;;;26.73;10.57;;;7.90;99.90;;;;;;5047828;28;20426;-71
2022/03/26 06:31:41;;;;;;;26.60;11.30;;;8.00;99.90;;;;;;5056656;28;21119;-70
2022/03/26 06:34:08;;;;;;;18.37;12.23;;;8.10;99.90;;;;;;5052760;28;20913;-71
2022/03/26 06:36:35;;;;;;;24.30;12.10;;;8.30;99.90;;;;;;5046381;28;20459;-70
2022/03/26 06:39:05;;;;;;;19.00;11.03;;;8.50;99.90;;;;;;5048105;28;20989;-71
2022/03/26 06:41:31;;;;;;;23.53;11.47;;;8.30;99.90;;;;;;5052548;28;20542;-71
2022/03/26 06:43:58;;;;;;;33.10;13.40;;;8.00;99.90;;;;;;5044286;28;20421;-71
2022/03/26 06:46:25;;;;;;;25.73;11.77;;;8.10;99.90;;;;;;5044170;28;21237;-71
2022/03/26 06:48:52;;;;;;;25.63;12.60;;;8.30;99.90;;;;;;5052075;28;20499;-70
2022/03/26 06:51:19;;;;;;;29.40;14.00;;;8.80;99.90;;;;;;5045980;28;20441;-71
2022/03/26 06:53:46;;;;;;;26.37;13.07;;;9.30;99.90;;;;;;5052777;28;20542;-71
2022/03/26 06:56:14;;;;;;;24.13;13.30;;;9.80;99.90;;;;;;5054876;28;20456;-71
2022/03/26 06:58:41;;;;;;;22.33;11.60;;;10.00;99.90;;;;;;5059640;28;20482;-71
2022/03/26 07:01:07;;;;;;;34.17;12.97;;;10.50;99.90;;;;;;5054712;28;20421;-71
2022/03/26 07:03:35;;;;;;;25.47;12.87;;;10.80;99.90;;;;;;5051160;28;20509;-71
2022/03/26 07:06:02;;;;;;;25.97;16.50;;;11.20;99.90;;;;;;5045619;28;20506;-71
2022/03/26 07:08:29;;;;;;;27.70;13.30;;;11.80;99.90;;;;;;5052404;28;20454;-69
2022/03/26 07:10:56;;;;;;;25.40;13.97;;;12.00;99.90;;;;;;5057490;28;20419;-71
2022/03/26 07:13:24;;;;;;;34.00;14.10;;;12.40;99.90;;;;;;5052174;28;20760;-71
2022/03/26 07:15:50;;;;;;;27.93;15.73;;;12.70;99.90;;;;;;5049498;28;20479;-71
2022/03/26 07:18:17;;;;;;;25.10;14.90;;;12.90;99.90;;;;;;5060311;28;20482;-71
2022/03/26 07:20:47;;;;;;;26.57;15.13;;;12.90;99.90;;;;;;5056420;28;20459;-71
2022/03/26 07:23:13;;;;;;;32.10;15.67;;;12.90;99.90;;;;;;5054329;28;20447;-71
2022/03/26 07:25:40;;;;;;;24.27;14.10;;;13.20;99.90;;;;;;5045520;28;20479;-72
2022/03/26 07:28:07;;;;;;;32.57;14.80;;;13.40;99.90;;;;;;5048923;28;20941;-73
2022/03/26 07:30:35;;;;;;;37.63;14.40;;;13.10;99.90;;;;;;5056159;28;20434;-72
2022/03/26 07:33:02;;;;;;;31.17;16.60;;;13.00;99.90;;;;;;5053351;28;20459;-72
2022/03/26 07:35:30;;;;;;;33.80;16.80;;;12.60;99.90;;;;;;5060090;28;20471;-71
2022/03/26 07:37:56;;;;;;;25.63;14.67;;;12.70;99.90;;;;;;5059138;28;20482;-71
2022/03/26 07:40:23;;;;;;;28.13;14.97;;;12.60;99.90;;;;;;5056319;28;20458;-71
2022/03/26 07:42:50;;;;;;;31.63;17.03;;;12.90;99.90;;;;;;5050429;28;20666;-71
2022/03/26 07:45:16;;;;;;;27.07;14.20;;;13.20;99.90;;;;;;5051078;28;23016;-71
2022/03/26 07:47:44;;;;;;;29.43;15.57;;;12.90;99.90;;;;;;5064573;28;20495;-70
2022/03/26 07:50:12;;;;;;;35.73;14.13;;;13.40;99.90;;;;;;5059948;28;20458;-70
2022/03/26 07:52:41;;;;;;;24.93;15.47;;;13.80;99.90;;;;;;5060251;28;20944;-70
2022/03/26 07:55:08;;;;;;;26.90;13.60;;;13.90;99.90;;;;;;5052449;28;21004;-69
2022/03/26 07:57:35;;;;;;;30.97;12.90;;;14.10;99.90;;;;;;5057354;28;20447;-70
2022/03/26 08:00:02;;;;;;;26.60;15.13;;;14.50;99.90;;;;;;5046278;28;20467;-69
2022/03/26 08:02:28;;;;;;;31.53;13.70;;;14.80;99.90;;;;;;5055937;28;20552;-69
2022/03/26 08:04:56;;;;;;;30.23;15.97;;;14.90;99.90;;;;;;5056275;28;20509;-69
2022/03/26 08:07:23;;;;;;;24.10;12.27;;;15.10;99.90;;;;;;5047515;28;20516;-68
2022/03/26 08:09:50;;;;;;;25.93;12.70;;;15.50;99.90;;;;;;5049789;28;20519;-69
2022/03/26 08:12:17;;;;;;;25.73;13.27;;;15.50;99.90;;;;;;5040922;28;20463;-70
2022/03/26 08:14:44;;;;;;;21.30;12.67;;;15.70;99.90;;;;;;5050645;28;20523;-70
2022/03/26 08:17:10;;;;;;;30.37;14.03;;;16.00;99.90;;;;;;5056876;28;20889;-70
2022/03/26 08:19:37;;;;;;;29.90;16.90;;;16.80;99.90;;;;;;5051875;28;20793;-70
2022/03/26 08:22:06;;;;;;;20.43;13.67;;;17.90;99.90;;;;;;5054205;28;20462;-70
2022/03/26 08:24:33;;;;;;;33.13;14.70;;;18.80;98.60;;;;;;5061561;28;20887;-70
2022/03/26 08:27:00;;;;;;;22.60;14.60;;;19.20;97.80;;;;;;5055120;28;20482;-71
2022/03/26 08:29:28;;;;;;;27.53;16.93;;;19.90;95.40;;;;;;5056064;28;20485;-70
2022/03/26 08:31:55;;;;;;;21.90;14.07;;;20.20;93.80;;;;;;5048163;28;21017;-70
2022/03/26 08:34:22;;;;;;;26.93;15.30;;;20.70;92.80;;;;;;5052270;28;20530;-71
2022/03/26 08:36:49;;;;;;;26.53;13.83;;;21.40;89.50;;;;;;5048956;28;21016;-70
2022/03/26 08:39:17;;;;;;;33.13;14.90;;;21.70;87.50;;;;;;5047877;28;20494;-70
2022/03/26 08:41:45;;;;;;;23.23;14.97;;;21.00;85.10;;;;;;5049465;28;20880;-70
2022/03/26 08:44:12;;;;;;;23.73;14.70;;;21.20;82.90;;;;;;5056312;28;20467;-71
2022/03/26 08:46:39;;;;;;;24.17;14.57;;;21.60;81.70;;;;;;5054443;28;20478;-71
2022/03/26 08:49:06;;;;;;;26.37;15.60;;;22.20;79.30;;;;;;5051534;28;21016;-72
2022/03/26 08:51:35;;;;;;;24.43;15.77;;;22.60;77.60;;;;;;5043120;28;20458;-71
2022/03/26 08:54:03;;;;;;;30.10;17.30;;;22.70;77.90;;;;;;5047962;28;20567;-72
2022/03/26 08:56:31;;;;;;;24.83;15.97;;;22.00;78.30;;;;;;5048766;28;20811;-71
2022/03/26 08:58:58;;;;;;;23.70;16.03;;;22.30;77.90;;;;;;5042925;28;22012;-71
2022/03/26 09:01:25;;;;;;;24.37;15.07;;;22.50;76.50;;;;;;5048444;28;20484;-72
2022/03/26 09:03:52;;;;;;;31.00;19.83;;;22.50;76.10;;;;;;5047178;28;20459;-72
2022/03/26 09:06:18;;;;;;;26.17;17.70;;;22.40;78.10;;;;;;5046388;28;20491;-71
2022/03/26 09:08:45;;;;;;;28.37;14.97;;;21.70;79.30;;;;;;5044591;28;20652;-71
2022/03/26 09:11:12;;;;;;;25.00;14.77;;;22.60;76.50;;;;;;5039943;28;20469;-71
2022/03/26 09:13:40;;;;;;;24.50;14.23;;;22.90;73.90;;;;;;5046770;28;20622;-71
2022/03/26 09:16:07;;;;;;;28.07;13.20;;;23.00;73.60;;;;;;5045525;28;21242;-72
2022/03/26 09:18:34;;;;;;;26.73;14.67;;;23.70;68.80;;;;;;5046988;28;20485;-72
2022/03/26 09:21:01;;;;;;;17.30;11.20;;;23.50;66.60;;;;;;5045812;28;20461;-72
2022/03/26 09:23:28;;;;;;;22.10;12.20;;;23.20;66.70;;;;;;5036862;28;20579;-73
2022/03/26 09:25:56;;;;;;;19.93;13.40;;;22.70;66.30;;;;;;5043120;28;20999;-72
2022/03/26 09:28:22;;;;;;;17.63;11.53;;;22.60;67.20;;;;;;5041188;28;20723;-73
2022/03/26 09:30:51;;;;;;;18.30;10.80;;;22.40;68.40;;;;;;5044235;28;20470;-71
2022/03/26 09:33:17;;;;;;;23.67;13.77;;;22.40;68.20;;;;;;5036778;28;20494;-72
2022/03/26 09:35:44;;;;;;;19.40;12.03;;;23.50;68.70;;;;;;5049535;28;20484;-72
2022/03/26 09:38:11;;;;;;;24.50;13.37;;;24.50;65.20;;;;;;5045797;28;20521;-72
2022/03/26 09:40:39;;;;;;;24.90;15.10;;;24.70;64.40;;;;;;5058932;28;20455;-71
2022/03/26 09:43:06;;;;;;;18.73;11.63;;;25.10;64.60;;;;;;5034331;28;20785;-71
2022/03/26 09:45:33;;;;;;;18.50;11.03;;;25.10;61.20;;;;;;5055623;28;20576;-72
2022/03/26 09:48:01;;;;;;;21.70;12.93;;;24.90;60.00;;;;;;5049912;28;20847;-71
2022/03/26 09:50:27;;;;;;;19.77;12.50;;;24.90;60.50;;;;;;5053301;28;20458;-73
2022/03/26 09:52:57;;;;;;;21.67;12.10;;;25.20;59.30;;;;;;5050419;28;20851;-72
2022/03/26 09:55:24;;;;;;;25.47;12.50;;;25.90;60.50;;;;;;5049897;28;20528;-71
2022/03/26 09:57:52;;;;;;;19.07;11.83;;;26.30;56.80;;;;;;5041240;28;20486;-72
2022/03/26 10:00:18;;;;;;;19.00;10.30;;;25.90;57.20;;;;;;5041838;28;20967;-72
2022/03/26 10:02:45;;;;;;;15.87;12.60;;;26.10;56.30;;;;;;5044078;28;20476;-71
2022/03/26 10:05:18;;;;;;;23.67;13.30;;;27.50;54.80;;;;;;5050314;28;20494;-72
2022/03/26 10:07:47;;;;;;;18.07;11.03;;;28.30;53.60;;;;;;5050269;28;20463;-71
2022/03/26 10:10:22;;;;;;;17.60;12.67;;;28.60;50.80;;;;;;5035710;28;20602;-73
2022/03/26 10:12:51;;;;;;;23.03;13.60;;;28.70;51.10;;;;;;5040362;28;20483;-72
2022/03/26 10:15:17;;;;;;;18.13;12.40;;;29.10;50.10;;;;;;5044199;28;20503;-72
2022/03/26 10:17:46;;;;;;;19.70;11.13;;;29.40;50.40;;;;;;5051039;28;20486;-71
2022/03/26 10:20:15;;;;;;;16.80;11.10;;;28.60;50.20;;;;;;5041639;28;20656;-72
2022/03/26 10:22:43;;;;;;;16.97;9.70;;;28.30;50.40;;;;;;5043343;28;20454;-72
2022/03/26 10:25:12;;;;;;;18.23;10.67;;;28.80;50.80;;;;;;5037154;28;20467;-72
2022/03/26 10:27:40;;;;;;;15.13;8.90;;;29.00;50.40;;;;;;5054179;28;20443;-71
2022/03/26 10:30:08;;;;;;;21.33;9.20;;;28.50;51.90;;;;;;5051186;28;20463;-72
2022/03/26 10:32:39;;;;;;;13.90;7.73;;;27.70;51.20;;;;;;5054046;28;20451;-71
2022/03/26 10:35:08;;;;;;;13.10;8.23;;;27.00;52.10;;;;;;5056046;28;20859;-72
2022/03/26 10:37:44;;;;;;;12.37;9.70;;;27.00;52.60;;;;;;5058683;28;20446;-70
2022/03/26 10:40:20;;;;;;;13.83;8.60;;;27.70;50.80;;;;;;5061098;28;21014;-72
2022/03/26 10:42:53;;;;;;;17.07;10.10;;;28.00;52.20;;;;;;5053826;28;20469;-71
2022/03/26 10:45:20;;;;;;;12.70;8.33;;;28.80;50.60;;;;;;5051106;28;20494;-71
2022/03/26 10:47:48;;;;;;;13.87;9.50;;;28.60;50.10;;;;;;5054914;28;20443;-72
2022/03/26 10:50:15;;;;;;;10.80;7.53;;;29.00;49.70;;;;;;5051254;28;20644;-72
2022/03/26 10:52:43;;;;;;;32.23;15.20;;;27.90;49.80;;;;;;5058227;28;20827;-72
2022/03/26 10:55:14;;;;;;;19.63;9.53;;;28.90;49.00;;;;;;5056025;28;20490;-72
2022/03/26 10:57:43;;;;;;;12.67;9.60;;;29.60;48.80;;;;;;5043595;28;20541;-71
2022/03/26 11:00:12;;;;;;;11.47;8.07;;;29.60;47.60;;;;;;5054498;28;20479;-71
2022/03/26 11:02:39;;;;;;;12.97;8.43;;;29.30;47.90;;;;;;5052705;28;20454;-72
2022/03/26 11:05:07;;;;;;;9.90;7.93;;;29.20;48.00;;;;;;5051331;28;20478;-69
2022/03/26 11:07:36;;;;;;;13.90;7.83;;;29.30;47.50;;;;;;5047646;28;20470;-71
2022/03/26 11:10:06;;;;;;;13.47;9.03;;;29.50;48.10;;;;;;5053217;28;20486;-70
2022/03/26 11:12:37;;;;;;;10.67;7.17;;;29.20;47.20;;;;;;5041496;28;20889;-70
2022/03/26 11:15:09;;;;;;;14.83;6.97;;;29.20;47.40;;;;;;5051303;28;20592;-70
2022/03/26 11:17:44;;;;;;;12.13;7.40;;;29.70;46.80;;;;;;5049862;28;20454;-70
2022/03/26 11:20:39;;;;;;;9.03;6.73;;;29.70;47.30;;;;;;5053674;28;20482;-70
2022/03/26 11:23:22;;;;;;;8.03;5.57;;;29.60;46.50;;;;;;5056184;28;20497;-71
2022/03/26 11:26:04;;;;;;;10.30;6.40;;;28.90;46.40;;;;;;5056932;28;20817;-70
2022/03/26 11:28:46;;;;;;;7.90;6.57;;;29.30;46.10;;;;;;5055536;28;20516;-70
2022/03/26 11:31:19;;;;;;;10.30;7.37;;;29.20;46.50;;;;;;5059756;28;20762;-72
2022/03/26 11:33:49;;;;;;;10.30;7.20;;;29.90;45.70;;;;;;5054400;28;20509;-72
2022/03/26 11:36:18;;;;;;;7.77;6.73;;;29.00;45.80;;;;;;5046372;28;20925;-70
2022/03/26 11:38:55;;;;;;;14.30;7.90;;;29.10;47.30;;;;;;5049574;28;20480;-69
2022/03/26 11:41:33;;;;;;;9.67;6.80;;;29.30;45.60;;;;;;5048900;28;20528;-70
2022/03/26 11:44:03;;;;;;;12.00;8.00;;;28.40;46.00;;;;;;5043766;28;20510;-71
2022/03/26 11:52:18;;;;;;;14.00;7.30;;;28.30;47.00;;;;;;5064557;28;20496;-71
2022/03/26 11:54:46;;;;;;;13.53;8.63;;;29.40;46.80;;;;;;5046277;28;20443;-70
2022/03/26 11:57:19;;;;;;;12.77;7.23;;;29.90;46.60;;;;;;5051756;28;20967;-70
2022/03/26 11:59:47;;;;;;;7.43;6.00;;;28.70;45.90;;;;;;5047454;28;21730;-71
2022/03/26 12:02:19;;;;;;;7.80;5.63;;;29.10;46.50;;;;;;5049451;28;20458;-71
2022/03/26 12:04:51;;;;;;;10.37;7.47;;;29.40;45.80;;;;;;5036185;28;20467;-70
2022/03/26 12:07:17;;;;;;;7.43;5.70;;;30.30;45.30;;;;;;5043406;28;20463;-71
2022/03/26 12:09:45;;;;;;;9.80;6.20;;;30.10;44.50;;;;;;5049120;28;20458;-70
2022/03/26 12:12:20;;;;;;;12.57;7.30;;;29.20;45.30;;;;;;5051616;28;20474;-70
2022/03/26 12:15:25;;;;;;;9.93;7.07;;;28.70;46.00;;;;;;5045185;28;20457;-70
2022/03/26 12:17:54;;;;;;;12.10;7.40;;;28.60;45.90;;;;;;5051058;28;20555;-70
2022/03/26 12:20:23;;;;;;;9.67;7.37;;;29.40;45.00;;;;;;5055666;28;20867;-70
2022/03/26 12:22:51;;;;;;;8.13;5.97;;;29.40;45.10;;;;;;5062709;28;20459;-70
2022/03/26 12:25:18;;;;;;;6.70;5.87;;;29.00;44.90;;;;;;5051801;28;20550;-69
2022/03/26 12:27:46;;;;;;;8.00;5.70;;;29.30;45.20;;;;;;5060303;28;20454;-70
2022/03/26 12:30:14;;;;;;;8.30;5.90;;;29.70;44.90;;;;;;5054821;28;20462;-71
2022/03/26 12:32:42;;;;;;;9.10;7.43;;;30.00;44.50;;;;;;5056736;28;20550;-70
2022/03/26 12:35:10;;;;;;;10.17;7.70;;;28.50;45.30;;;;;;5051236;28;20474;-71
2022/03/26 12:37:38;;;;;;;13.53;7.83;;;28.30;46.70;;;;;;5055173;28;20453;-70
2022/03/26 12:40:09;;;;;;;12.90;8.60;;;29.20;45.90;;;;;;5044293;28;20566;-70
2022/03/26 12:42:36;;;;;;;10.83;8.00;;;30.10;45.80;;;;;;5044083;28;20458;-71
2022/03/26 12:45:14;;;;;;;12.33;7.93;;;30.40;44.60;;;;;;5048068;28;20486;-70